sensor_id;sensor_type;location;lat;lon;timestamp;pressure;altitude;pressure_sealevel;temperature;humidity
18323;BME280;9287;49.456;11.064;2023-02-18T00:01:37;98841.09;;;10.84;100.00
18323;BME280;9287;49.456;11.064;2023-02-18T00:04:05;98824.72;;;10.84;100.00
18323;BME280;9287;49.456;11.064;2023-02-18T00:06:34;98843.38;;;10.82;100.00
18323;BME280;9287;49.456;11.064;2023-02-18T00:09:03;98839.50;;;10.83;100.00
18323;BME280;9287;49.456;11.064;2023-02-18T00:11:33;98848.03;;;10.81;100.00
18323;BME280;9287;49.456;11.064;2023-02-18T00:14:05;98834.56;;;10.76;100.00
18323;BME280;9287;49.456;11.064;2023-02-18T00:16:33;98851.50;;;10.70;100.00
18323;BME280;9287;49.456;11.064;2023-02-18T00:19:02;98846.84;;;10.70;100.00
18323;BME280;9287;49.456;11.064;2023-02-18T00:21:32;98837.19;;;10.73;100.00
18323;BME280;9287;49.456;11.064;2023-02-18T00:24:00;98843.78;;;10.72;100.00
18323;BME280;9287;49.456;11.064;2023-02-18T00:26:28;98833.66;;;10.72;100.00
18323;BME280;9287;49.456;11.064;2023-02-18T00:28:56;98828.28;;;10.76;100.00
18323;BME280;9287;49.456;11.064;2023-02-18T00:31:27;98836.16;;;10.77;100.00
18323;BME280;9287;49.456;11.064;2023-02-18T00:33:56;98838.56;;;10.79;100.00
18323;BME280;9287;49.456;11.064;2023-02-18T00:36:24;98844.03;;;10.79;100.00
18323;BME280;9287;49.456;11.064;2023-02-18T00:38:54;98837.25;;;10.85;100.00
18323;BME280;9287;49.456;11.064;2023-02-18T00:41:25;98843.84;;;10.84;100.00
18323;BME280;9287;49.456;11.064;2023-02-18T00:43:53;98820.84;;;10.85;100.00
18323;BME280;9287;49.456;11.064;2023-02-18T00:46:22;98835.31;;;10.86;100.00
18323;BME280;9287;49.456;11.064;2023-02-18T00:48:52;98842.69;;;10.85;100.00
18323;BME280;9287;49.456;11.064;2023-02-18T00:51:20;98834.97;;;10.87;100.00
18323;BME280;9287;49.456;11.064;2023-02-18T00:53:48;98828.72;;;10.87;100.00
18323;BME280;9287;49.456;11.064;2023-02-18T00:56:16;98828.72;;;10.87;100.00
18323;BME280;9287;49.456;11.064;2023-02-18T00:58:44;98838.19;;;10.89;100.00
18323;BME280;9287;49.456;11.064;2023-02-18T01:01:12;98839.78;;;10.90;100.00
18323;BME280;9287;49.456;11.064;2023-02-18T01:03:41;98836.56;;;10.88;100.00
18323;BME280;9287;49.456;11.064;2023-02-18T01:06:11;98839.50;;;10.83;100.00
18323;BME280;9287;49.456;11.064;2023-02-18T01:08:39;98845.91;;;10.87;100.00
18323;BME280;9287;49.456;11.064;2023-02-18T01:11:08;98842.69;;;10.85;100.00
18323;BME280;9287;49.456;11.064;2023-02-18T01:13:36;98839.50;;;10.83;100.00
18323;BME280;9287;49.456;11.064;2023-02-18T01:16:04;98841.75;;;10.81;100.00
18323;BME280;9287;49.456;11.064;2023-02-18T01:18:33;98841.94;;;10.76;100.00
18323;BME280;9287;49.456;11.064;2023-02-18T01:21:01;98845.09;;;10.66;100.00
18323;BME280;9287;49.456;11.064;2023-02-18T01:23:31;98845.94;;;10.58;100.00
18323;BME280;9287;49.456;11.064;2023-02-18T01:25:59;98851.97;;;10.42;100.00
18323;BME280;9287;49.456;11.064;2023-02-18T01:28:27;98848.75;;;10.40;100.00
18323;BME280;9287;49.456;11.064;2023-02-18T01:30:55;98849.78;;;10.36;100.00
18323;BME280;9287;49.456;11.064;2023-02-18T01:33:23;98851.41;;;10.28;100.00
18323;BME280;9287;49.456;11.064;2023-02-18T01:35:51;98853.66;;;10.26;100.00
18323;BME280;9287;49.456;11.064;2023-02-18T01:38:19;98856.13;;;10.19;100.00
18323;BME280;9287;49.456;11.064;2023-02-18T01:40:50;98863.69;;;10.05;100.00
18323;BME280;9287;49.456;11.064;2023-02-18T01:43:19;98865.28;;;10.06;100.00
18323;BME280;9287;49.456;11.064;2023-02-18T01:46:04;98868.84;;;9.98;100.00
18323;BME280;9287;49.456;11.064;2023-02-18T01:48:36;98863.41;;;9.98;100.00
18323;BME280;9287;49.456;11.064;2023-02-18T01:51:10;98853.78;;;9.92;100.00
18323;BME280;9287;49.456;11.064;2023-02-18T01:53:44;98872.41;;;9.90;100.00
18323;BME280;9287;49.456;11.064;2023-02-18T01:56:20;98875.59;;;9.92;100.00
18323;BME280;9287;49.456;11.064;2023-02-18T01:58:49;98873.34;;;9.94;100.00
18323;BME280;9287;49.456;11.064;2023-02-18T02:01:18;98870.16;;;9.92;100.00
18323;BME280;9287;49.456;11.064;2023-02-18T02:03:46;98873.50;;;9.97;100.00
18323;BME280;9287;49.456;11.064;2023-02-18T02:06:16;98867.41;;;10.00;100.00
18323;BME280;9287;49.456;11.064;2023-02-18T02:08:46;98860.50;;;10.03;100.00
18323;BME280;9287;49.456;11.064;2023-02-18T02:11:26;98855.03;;;10.03;100.00
18323;BME280;9287;49.456;11.064;2023-02-18T02:14:21;98838.47;;;10.08;100.00
18323;BME280;9287;49.456;11.064;2023-02-18T02:16:56;98846.19;;;10.06;100.00
18323;BME280;9287;49.456;11.064;2023-02-18T02:19:59;98829.00;;;10.05;100.00
18323;BME280;9287;49.456;11.064;2023-02-18T02:22:59;98828.19;;;10.05;100.00
18323;BME280;9287;49.456;11.064;2023-02-18T02:25:49;98836.28;;;10.01;100.00
18323;BME280;9287;49.456;11.064;2023-02-18T02:31:57;98835.16;;;9.94;100.00
18323;BME280;9287;49.456;11.064;2023-02-18T02:34:37;98840.63;;;9.94;100.00
18323;BME280;9287;49.456;11.064;2023-02-18T02:37:13;98830.66;;;9.98;100.00
18323;BME280;9287;49.456;11.064;2023-02-18T02:39:50;98811.72;;;9.93;100.00
18323;BME280;9287;49.456;11.064;2023-02-18T02:42:25;98823.44;;;9.93;100.00
18323;BME280;9287;49.456;11.064;2023-02-18T02:45:03;98823.44;;;9.93;100.00
18323;BME280;9287;49.456;11.064;2023-02-18T02:47:40;98804.03;;;9.95;100.00
18323;BME280;9287;49.456;11.064;2023-02-18T02:50:20;98808.19;;;10.01;100.00
18323;BME280;9287;49.456;11.064;2023-02-18T02:52:56;98792.84;;;10.17;100.00
18323;BME280;9287;49.456;11.064;2023-02-18T02:55:25;98788.00;;;10.23;100.00
18323;BME280;9287;49.456;11.064;2023-02-18T02:57:54;98792.47;;;10.27;100.00
18323;BME280;9287;49.456;11.064;2023-02-18T03:00:31;98779.13;;;10.34;100.00
18323;BME280;9287;49.456;11.064;2023-02-18T03:03:16;98778.13;;;10.39;100.00
18323;BME280;9287;49.456;11.064;2023-02-18T03:06:15;98775.03;;;10.40;100.00
18323;BME280;9287;49.456;11.064;2023-02-18T03:08:57;98780.31;;;10.45;100.00
18323;BME280;9287;49.456;11.064;2023-02-18T03:11:33;98754.75;;;10.50;100.00
18323;BME280;9287;49.456;11.064;2023-02-18T03:14:10;98776.94;;;10.49;100.00
18323;BME280;9287;49.456;11.064;2023-02-18T03:16:44;98775.94;;;10.53;100.00
18323;BME280;9287;49.456;11.064;2023-02-18T03:19:19;98772.09;;;10.54;100.00
18323;BME280;9287;49.456;11.064;2023-02-18T03:21:54;98767.41;;;10.55;100.00
18323;BME280;9287;49.456;11.064;2023-02-18T03:24:27;98778.34;;;10.55;100.00
18323;BME280;9287;49.456;11.064;2023-02-18T03:26:58;98778.00;;;10.56;100.00
18323;BME280;9287;49.456;11.064;2023-02-18T03:29:29;98779.25;;;10.59;100.00
18323;BME280;9287;49.456;11.064;2023-02-18T03:32:00;98779.25;;;10.59;100.00
18323;BME280;9287;49.456;11.064;2023-02-18T03:34:31;98780.84;;;10.60;100.00
18323;BME280;9287;49.456;11.064;2023-02-18T03:37:02;98782.47;;;10.61;100.00
18323;BME280;9287;49.456;11.064;2023-02-18T03:39:31;98777.78;;;10.61;100.00
18323;BME280;9287;49.456;11.064;2023-02-18T03:42:00;98780.84;;;10.60;100.00
18323;BME280;9287;49.456;11.064;2023-02-18T03:44:29;98774.72;;;10.63;100.00
18323;BME280;9287;49.456;11.064;2023-02-18T03:46:57;98774.25;;;10.61;100.00
18323;BME280;9287;49.456;11.064;2023-02-18T03:49:25;98778.94;;;10.60;100.00
18323;BME280;9287;49.456;11.064;2023-02-18T03:51:52;98785.50;;;10.59;100.00
18323;BME280;9287;49.456;11.064;2023-02-18T03:54:21;98777.47;;;10.63;100.00
18323;BME280;9287;49.456;11.064;2023-02-18T03:56:49;98780.19;;;10.63;100.00
18323;BME280;9287;49.456;11.064;2023-02-18T03:59:17;98783.13;;;10.58;100.00
18323;BME280;9287;49.456;11.064;2023-02-18T04:01:45;98781.78;;;10.64;100.00
18323;BME280;9287;49.456;11.064;2023-02-18T04:04:12;98788.84;;;10.65;100.00
18323;BME280;9287;49.456;11.064;2023-02-18T04:06:40;98787.13;;;10.60;100.00
18323;BME280;9287;49.456;11.064;2023-02-18T04:09:08;98781.72;;;10.52;100.00
18323;BME280;9287;49.456;11.064;2023-02-18T04:11:38;98783.53;;;10.48;100.00
18323;BME280;9287;49.456;11.064;2023-02-18T04:14:06;98788.03;;;10.43;100.00
18323;BME280;9287;49.456;11.064;2023-02-18T04:16:34;98799.91;;;10.48;100.00
18323;BME280;9287;49.456;11.064;2023-02-18T04:19:02;98792.19;;;10.50;100.00
18323;BME280;9287;49.456;11.064;2023-02-18T04:21:30;98791.25;;;10.45;100.00
18323;BME280;9287;49.456;11.064;2023-02-18T04:23:58;98792.84;;;10.46;100.00
18323;BME280;9287;49.456;11.064;2023-02-18T04:26:26;98796.56;;;10.42;100.00
18323;BME280;9287;49.456;11.064;2023-02-18T04:28:55;98790.59;;;10.49;100.00
18323;BME280;9287;49.456;11.064;2023-02-18T04:31:23;98782.59;;;10.43;100.00
18323;BME280;9287;49.456;11.064;2023-02-18T04:33:51;98796.03;;;10.49;100.00
18323;BME280;9287;49.456;11.064;2023-02-18T04:36:18;98781.25;;;10.50;100.00
18323;BME280;9287;49.456;11.064;2023-02-18T04:38:46;98798.31;;;10.46;100.00
18323;BME280;9287;49.456;11.064;2023-02-18T04:41:14;98786.72;;;10.50;100.00
18323;BME280;9287;49.456;11.064;2023-02-18T04:43:41;98788.31;;;10.51;100.00
18323;BME280;9287;49.456;11.064;2023-02-18T04:46:10;98778.19;;;10.51;100.00
18323;BME280;9287;49.456;11.064;2023-02-18T04:48:38;98789.28;;;10.55;100.00
18323;BME280;9287;49.456;11.064;2023-02-18T04:51:06;98785.84;;;10.58;100.00
18323;BME280;9287;49.456;11.064;2023-02-18T04:53:34;98781.41;;;10.53;100.00
18323;BME280;9287;49.456;11.064;2023-02-18T04:56:02;98785.50;;;10.59;100.00
18323;BME280;9287;49.456;11.064;2023-02-18T04:58:30;98782.47;;;10.61;100.00
18323;BME280;9287;49.456;11.064;2023-02-18T05:00:58;98788.84;;;10.65;100.00
18323;BME280;9287;49.456;11.064;2023-02-18T05:03:28;98779.25;;;10.59;100.00
18323;BME280;9287;49.456;11.064;2023-02-18T05:05:56;98780.66;;;10.65;100.00
18323;BME280;9287;49.456;11.064;2023-02-18T05:08:24;98772.47;;;10.65;100.00
18323;BME280;9287;49.456;11.064;2023-02-18T05:10:52;98785.19;;;10.61;100.00
18323;BME280;9287;49.456;11.064;2023-02-18T05:13:20;98787.91;;;10.61;100.00
18323;BME280;9287;49.456;11.064;2023-02-18T05:15:48;98787.44;;;10.59;100.00
18323;BME280;9287;49.456;11.064;2023-02-18T05:18:15;98788.66;;;10.49;100.00
18323;BME280;9287;49.456;11.064;2023-02-18T05:20:44;98783.63;;;10.30;100.00
18323;BME280;9287;49.456;11.064;2023-02-18T05:23:12;98784.94;;;10.24;100.00
18323;BME280;9287;49.456;11.064;2023-02-18T05:25:40;98777.59;;;10.16;100.00
18323;BME280;9287;49.456;11.064;2023-02-18T05:28:07;98779.84;;;10.14;100.00
18323;BME280;9287;49.456;11.064;2023-02-18T05:30:35;98781.47;;;10.15;100.00
18323;BME280;9287;49.456;11.064;2023-02-18T05:33:03;98789.31;;;10.17;100.00
18323;BME280;9287;49.456;11.064;2023-02-18T05:35:31;98775.34;;;10.18;100.00
18323;BME280;9287;49.456;11.064;2023-02-18T05:38:00;98773.22;;;10.24;100.00
18323;BME280;9287;49.456;11.064;2023-02-18T05:40:27;98777.44;;;10.21;100.00
18323;BME280;9287;49.456;11.064;2023-02-18T05:42:55;98777.38;;;10.30;100.00
18323;BME280;9287;49.456;11.064;2023-02-18T05:45:23;98768.72;;;10.28;100.00
18323;BME280;9287;49.456;11.064;2023-02-18T05:47:50;98780.28;;;10.25;100.00
18323;BME280;9287;49.456;11.064;2023-02-18T05:50:18;98781.22;;;10.29;100.00
18323;BME280;9287;49.456;11.064;2023-02-18T05:52:46;98769.50;;;10.28;100.00
18323;BME280;9287;49.456;11.064;2023-02-18T05:55:15;98768.84;;;10.31;100.00
18323;BME280;9287;49.456;11.064;2023-02-18T05:57:43;98768.84;;;10.31;100.00
18323;BME280;9287;49.456;11.064;2023-02-18T06:00:11;98757.28;;;10.34;100.00
18323;BME280;9287;49.456;11.064;2023-02-18T06:02:39;98760.47;;;10.36;100.00
18323;BME280;9287;49.456;11.064;2023-02-18T06:05:08;98771.19;;;10.41;100.00
18323;BME280;9287;49.456;11.064;2023-02-18T06:07:36;98771.00;;;10.46;100.00
18323;BME280;9287;49.456;11.064;2023-02-18T06:10:05;98767.13;;;10.48;100.00
18323;BME280;9287;49.456;11.064;2023-02-18T06:12:35;98771.00;;;10.46;100.00
18323;BME280;9287;49.456;11.064;2023-02-18T06:15:03;98771.47;;;10.49;100.00
18323;BME280;9287;49.456;11.064;2023-02-18T06:17:30;98761.69;;;10.48;100.00
18323;BME280;9287;49.456;11.064;2023-02-18T06:19:58;98762.63;;;10.52;100.00
18323;BME280;9287;49.456;11.064;2023-02-18T06:22:26;98756.69;;;10.50;100.00
18323;BME280;9287;49.456;11.064;2023-02-18T06:24:54;98755.56;;;10.51;100.00
18323;BME280;9287;49.456;11.064;2023-02-18T06:27:21;98766.47;;;10.51;100.00
18323;BME280;9287;49.456;11.064;2023-02-18T06:29:50;98754.91;;;10.54;100.00
18323;BME280;9287;49.456;11.064;2023-02-18T06:32:18;98754.22;;;10.57;100.00
18323;BME280;9287;49.456;11.064;2023-02-18T06:34:46;98753.28;;;10.53;100.00
18323;BME280;9287;49.456;11.064;2023-02-18T06:37:13;98734.66;;;10.55;100.00
18323;BME280;9287;49.456;11.064;2023-02-18T06:39:41;98737.38;;;10.55;100.00
18323;BME280;9287;49.456;11.064;2023-02-18T06:42:09;98740.69;;;10.60;100.00
18323;BME280;9287;49.456;11.064;2023-02-18T06:44:37;98746.28;;;10.64;100.00
18323;BME280;9287;49.456;11.064;2023-02-18T06:47:06;98722.19;;;10.66;100.00
18323;BME280;9287;49.456;11.064;2023-02-18T06:49:34;98732.09;;;10.70;100.00
18323;BME280;9287;49.456;11.064;2023-02-18T06:52:02;98738.47;;;10.74;100.00
18323;BME280;9287;49.456;11.064;2023-02-18T06:54:30;98723.56;;;10.72;100.00
18323;BME280;9287;49.456;11.064;2023-02-18T06:56:58;98721.66;;;10.72;100.00
18323;BME280;9287;49.456;11.064;2023-02-18T06:59:26;98715.81;;;10.74;100.00
18323;BME280;9287;49.456;11.064;2023-02-18T07:01:53;98725.28;;;10.76;100.00
18323;BME280;9287;49.456;11.064;2023-02-18T07:04:22;98722.22;;;10.78;100.00
18323;BME280;9287;49.456;11.064;2023-02-18T07:06:50;98730.41;;;10.78;100.00
18323;BME280;9287;49.456;11.064;2023-02-18T07:09:18;98722.22;;;10.78;100.00
18323;BME280;9287;49.456;11.064;2023-02-18T07:11:47;98730.66;;;10.73;100.00
18323;BME280;9287;49.456;11.064;2023-02-18T07:14:15;98705.59;;;10.71;100.00
18323;BME280;9287;49.456;11.064;2023-02-18T07:16:43;98715.72;;;10.70;100.00
18323;BME280;9287;49.456;11.064;2023-02-18T07:19:10;98708.78;;;10.73;100.00
18323;BME280;9287;49.456;11.064;2023-02-18T07:21:41;98713.56;;;10.76;100.00
18323;BME280;9287;49.456;11.064;2023-02-18T07:24:09;98705.16;;;10.81;100.00
18323;BME280;9287;49.456;11.064;2023-02-18T07:26:37;98712.22;;;10.82;100.00
18323;BME280;9287;49.456;11.064;2023-02-18T07:29:05;98704.72;;;10.91;100.00
18323;BME280;9287;49.456;11.064;2023-02-18T07:31:32;98710.19;;;10.91;100.00
18323;BME280;9287;49.456;11.064;2023-02-18T07:34:00;98713.38;;;10.93;100.00
18323;BME280;9287;49.456;11.064;2023-02-18T07:36:28;98719.00;;;10.97;100.00
18323;BME280;9287;49.456;11.064;2023-02-18T07:38:57;98720.59;;;10.98;100.00
18323;BME280;9287;49.456;11.064;2023-02-18T07:41:25;98721.06;;;11.00;100.00
18323;BME280;9287;49.456;11.064;2023-02-18T07:43:52;98725.06;;;11.02;100.00
18323;BME280;9287;49.456;11.064;2023-02-18T07:46:20;98725.97;;;11.06;100.00
18323;BME280;9287;49.456;11.064;2023-02-18T07:48:48;98724.03;;;11.07;100.00
18323;BME280;9287;49.456;11.064;2023-02-18T07:51:16;98726.41;;;11.08;100.00
18323;BME280;9287;49.456;11.064;2023-02-18T07:53:44;98718.22;;;11.08;100.00
18323;BME280;9287;49.456;11.064;2023-02-18T07:56:13;98719.59;;;11.14;100.00
18323;BME280;9287;49.456;11.064;2023-02-18T07:58:41;98712.13;;;11.24;100.00
18323;BME280;9287;49.456;11.064;2023-02-18T08:01:10;98715.28;;;11.26;100.00
18323;BME280;9287;49.456;11.064;2023-02-18T08:03:38;98708.34;;;11.28;100.00
18323;BME280;9287;49.456;11.064;2023-02-18T08:06:07;98704.34;;;11.26;100.00
18323;BME280;9287;49.456;11.064;2023-02-18T08:08:35;98700.50;;;11.27;100.00
18323;BME280;9287;49.456;11.064;2023-02-18T08:11:03;98701.28;;;11.27;100.00
18323;BME280;9287;49.456;11.064;2023-02-18T08:13:45;98705.97;;;11.27;100.00
18323;BME280;9287;49.456;11.064;2023-02-18T08:16:13;98710.28;;;11.28;100.00
18323;BME280;9287;49.456;11.064;2023-02-18T08:18:41;98700.75;;;11.34;100.00
18323;BME280;9287;49.456;11.064;2023-02-18T08:21:09;98697.78;;;11.39;100.00
18323;BME280;9287;49.456;11.064;2023-02-18T08:23:37;98693.00;;;11.48;100.00
18323;BME280;9287;49.456;11.064;2023-02-18T08:26:05;98685.03;;;11.67;100.00
18323;BME280;9287;49.456;11.064;2023-02-18T08:28:34;98665.75;;;12.00;100.00
18323;BME280;9287;49.456;11.064;2023-02-18T08:31:03;98680.50;;;12.36;100.00
18323;BME280;9287;49.456;11.064;2023-02-18T08:33:32;98685.00;;;12.84;100.00
18323;BME280;9287;49.456;11.064;2023-02-18T08:36:00;98683.69;;;12.78;100.00
18323;BME280;9287;49.456;11.064;2023-02-18T08:38:28;98679.03;;;12.38;100.00
18323;BME280;9287;49.456;11.064;2023-02-18T08:41:00;98686.81;;;12.24;100.00
18323;BME280;9287;49.456;11.064;2023-02-18T08:43:28;98674.09;;;12.04;100.00
18323;BME280;9287;49.456;11.064;2023-02-18T08:45:56;98678.09;;;11.94;100.00
18323;BME280;9287;49.456;11.064;2023-02-18T08:48:28;98668.19;;;11.90;100.00
18323;BME280;9287;49.456;11.064;2023-02-18T08:50:56;98675.38;;;11.94;100.00
18323;BME280;9287;49.456;11.064;2023-02-18T08:53:24;98654.41;;;12.26;100.00
18323;BME280;9287;49.456;11.064;2023-02-18T08:55:52;98661.84;;;12.13;100.00
18323;BME280;9287;49.456;11.064;2023-02-18T08:58:19;98667.78;;;12.15;100.00
18323;BME280;9287;49.456;11.064;2023-02-18T09:00:47;98659.69;;;12.19;100.00
18323;BME280;9287;49.456;11.064;2023-02-18T09:03:15;98650.03;;;12.09;100.00
18323;BME280;9287;49.456;11.064;2023-02-18T09:05:44;98633.91;;;12.20;100.00
18323;BME280;9287;49.456;11.064;2023-02-18T09:08:12;98629.09;;;12.17;100.00
18323;BME280;9287;49.456;11.064;2023-02-18T09:10:39;98622.03;;;12.16;100.00
18323;BME280;9287;49.456;11.064;2023-02-18T09:13:08;98628.66;;;12.15;100.00
18323;BME280;9287;49.456;11.064;2023-02-18T09:15:36;98603.81;;;12.08;100.00
18323;BME280;9287;49.456;11.064;2023-02-18T09:18:04;98607.88;;;12.26;100.00
18323;BME280;9287;49.456;11.064;2023-02-18T09:20:32;98595.28;;;12.37;100.00
18323;BME280;9287;49.456;11.064;2023-02-18T09:23:01;98602.34;;;12.38;100.00
18323;BME280;9287;49.456;11.064;2023-02-18T09:25:29;98597.16;;;12.21;100.00
18323;BME280;9287;49.456;11.064;2023-02-18T09:27:57;98604.97;;;12.07;100.00
18323;BME280;9287;49.456;11.064;2023-02-18T09:30:24;98607.72;;;12.07;100.00
18323;BME280;9287;49.456;11.064;2023-02-18T09:32:52;98596.94;;;12.14;100.00
18323;BME280;9287;49.456;11.064;2023-02-18T09:35:20;98598.09;;;12.13;100.00
18323;BME280;9287;49.456;11.064;2023-02-18T09:37:48;98617.69;;;12.15;100.00
18323;BME280;9287;49.456;11.064;2023-02-18T09:40:23;98614.97;;;12.15;100.00
18323;BME280;9287;49.456;11.064;2023-02-18T09:42:54;98615.06;;;12.18;100.00
18323;BME280;9287;49.456;11.064;2023-02-18T09:45:23;98625.22;;;12.18;100.00
18323;BME280;9287;49.456;11.064;2023-02-18T09:47:51;98625.72;;;12.08;100.00
18323;BME280;9287;49.456;11.064;2023-02-18T09:50:21;98614.16;;;12.14;100.00
18323;BME280;9287;49.456;11.064;2023-02-18T09:52:49;98612.69;;;12.17;100.00
18323;BME280;9287;49.456;11.064;2023-02-18T09:55:23;98610.28;;;12.15;100.00
18323;BME280;9287;49.456;11.064;2023-02-18T09:57:53;98614.94;;;12.27;100.00
18323;BME280;9287;49.456;11.064;2023-02-18T10:00:29;98609.72;;;12.22;100.00
18323;BME280;9287;49.456;11.064;2023-02-18T10:03:03;98600.53;;;12.30;100.00
18323;BME280;9287;49.456;11.064;2023-02-18T10:05:33;98604.34;;;12.26;100.00
18323;BME280;9287;49.456;11.064;2023-02-18T10:08:03;98598.06;;;12.25;100.00
18323;BME280;9287;49.456;11.064;2023-02-18T10:10:39;98592.59;;;12.25;100.00
18323;BME280;9287;49.456;11.064;2023-02-18T10:13:12;98593.66;;;12.36;100.00
18323;BME280;9287;49.456;11.064;2023-02-18T10:15:41;98602.06;;;12.28;100.00
18323;BME280;9287;49.456;11.064;2023-02-18T10:18:27;98581.63;;;12.25;100.00
18323;BME280;9287;49.456;11.064;2023-02-18T10:21:05;98602.84;;;12.28;100.00
18323;BME280;9287;49.456;11.064;2023-02-18T10:23:37;98588.72;;;12.26;100.00
18323;BME280;9287;49.456;11.064;2023-02-18T10:26:13;98596.03;;;12.22;100.00
18323;BME280;9287;49.456;11.064;2023-02-18T10:28:43;98601.25;;;12.27;100.00
18323;BME280;9287;49.456;11.064;2023-02-18T10:31:15;98585.63;;;12.28;100.00
18323;BME280;9287;49.456;11.064;2023-02-18T10:33:46;98577.94;;;12.33;100.00
18323;BME280;9287;49.456;11.064;2023-02-18T10:36:24;98573.56;;;12.44;100.00
18323;BME280;9287;49.456;11.064;2023-02-18T10:39:17;98574.63;;;12.55;100.00
18323;BME280;9287;49.456;11.064;2023-02-18T10:41:56;98563.59;;;12.68;100.00
18323;BME280;9287;49.456;11.064;2023-02-18T10:44:34;98572.63;;;12.68;100.00
18323;BME280;9287;49.456;11.064;2023-02-18T10:47:15;98570.50;;;12.62;100.00
18323;BME280;9287;49.456;11.064;2023-02-18T10:49:56;98576.44;;;12.64;100.00
18323;BME280;9287;49.456;11.064;2023-02-18T10:52:26;98576.44;;;12.64;100.00
18323;BME280;9287;49.456;11.064;2023-02-18T10:55:01;98567.75;;;12.62;100.00
18323;BME280;9287;49.456;11.064;2023-02-18T10:57:32;98570.22;;;12.67;100.00
18323;BME280;9287;49.456;11.064;2023-02-18T11:00:02;98575.69;;;12.67;100.00
18323;BME280;9287;49.456;11.064;2023-02-18T11:02:38;98578.00;;;12.65;100.00
18323;BME280;9287;49.456;11.064;2023-02-18T11:05:17;98569.53;;;12.70;100.00
18323;BME280;9287;49.456;11.064;2023-02-18T11:07:47;98575.81;;;12.70;100.00
18323;BME280;9287;49.456;11.064;2023-02-18T11:10:17;98566.53;;;12.75;100.00
18323;BME280;9287;49.456;11.064;2023-02-18T11:12:51;98552.03;;;12.74;100.00
18323;BME280;9287;49.456;11.064;2023-02-18T11:15:23;98558.56;;;12.70;100.00
18323;BME280;9287;49.456;11.064;2023-02-18T11:17:53;98546.09;;;12.72;100.00
18323;BME280;9287;49.456;11.064;2023-02-18T11:20:30;98555.47;;;12.71;100.00
18323;BME280;9287;49.456;11.064;2023-02-18T11:23:14;98544.78;;;12.82;100.00
18323;BME280;9287;49.456;11.064;2023-02-18T11:25:53;98549.41;;;12.78;100.00
18323;BME280;9287;49.456;11.064;2023-02-18T11:28:30;98547.09;;;12.80;100.00
18323;BME280;9287;49.456;11.064;2023-02-18T11:31:01;98539.94;;;12.75;100.00
18323;BME280;9287;49.456;11.064;2023-02-18T11:33:33;98541.44;;;12.73;100.00
18323;BME280;9287;49.456;11.064;2023-02-18T11:36:09;98532.75;;;12.71;100.00
18323;BME280;9287;49.456;11.064;2023-02-18T11:38:46;98531.16;;;12.70;100.00
18323;BME280;9287;49.456;11.064;2023-02-18T11:41:18;98529.75;;;12.76;100.00
18323;BME280;9287;49.456;11.064;2023-02-18T11:43:50;98527.28;;;12.71;100.00
18323;BME280;9287;49.456;11.064;2023-02-18T11:46:21;98527.81;;;12.76;100.00
18323;BME280;9287;49.456;11.064;2023-02-18T11:48:51;98537.28;;;12.79;100.00
18323;BME280;9287;49.456;11.064;2023-02-18T11:51:23;98525.69;;;12.85;100.00
18323;BME280;9287;49.456;11.064;2023-02-18T11:53:55;98508.78;;;12.83;100.00
18323;BME280;9287;49.456;11.064;2023-02-18T11:56:30;98515.38;;;12.79;100.00
18323;BME280;9287;49.456;11.064;2023-02-18T11:59:01;98519.59;;;12.76;100.00
18323;BME280;9287;49.456;11.064;2023-02-18T12:01:37;98509.44;;;12.77;100.00
18323;BME280;9287;49.456;11.064;2023-02-18T12:04:12;98507.94;;;12.79;100.00
18323;BME280;9287;49.456;11.064;2023-02-18T12:06:47;98519.69;;;12.80;100.00
18323;BME280;9287;49.456;11.064;2023-02-18T12:09:27;98494.03;;;12.88;99.94
18323;BME280;9287;49.456;11.064;2023-02-18T12:11:58;98491.75;;;12.90;98.67
18323;BME280;9287;49.456;11.064;2023-02-18T12:14:29;98508.88;;;12.87;98.73
18323;BME280;9287;49.456;11.064;2023-02-18T12:20:35;98491.56;;;12.83;97.35
18323;BME280;9287;49.456;11.064;2023-02-18T12:23:14;98474.97;;;12.76;98.43
18323;BME280;9287;49.456;11.064;2023-02-18T12:25:54;98486.53;;;12.69;98.60
18323;BME280;9287;49.456;11.064;2023-02-18T12:28:37;98492.00;;;12.69;98.29
18323;BME280;9287;49.456;11.064;2023-02-18T12:31:24;98487.31;;;12.70;98.15
18323;BME280;9287;49.456;11.064;2023-02-18T12:34:04;98484.13;;;12.68;97.11
18323;BME280;9287;49.456;11.064;2023-02-18T12:36:47;98490.50;;;12.72;95.83
18323;BME280;9287;49.456;11.064;2023-02-18T12:39:30;98467.88;;;12.75;95.10
18323;BME280;9287;49.456;11.064;2023-02-18T12:42:24;98456.22;;;12.78;94.37
18323;BME280;9287;49.456;11.064;2023-02-18T12:45:03;98478.16;;;12.78;94.60
18323;BME280;9287;49.456;11.064;2023-02-18T12:47:46;98465.47;;;12.89;94.06
18323;BME280;9287;49.456;11.064;2023-02-18T12:53:27;98477.59;;;12.88;94.26
18323;BME280;9287;49.456;11.064;2023-02-18T12:56:11;98476.44;;;12.89;93.90
18323;BME280;9287;49.456;11.064;2023-02-18T12:58:53;98475.47;;;12.97;93.58
18323;BME280;9287;49.456;11.064;2023-02-18T13:01:34;98467.84;;;13.06;92.50
18323;BME280;9287;49.456;11.064;2023-02-18T13:07:16;98434.78;;;12.99;92.97
18323;BME280;9287;49.456;11.064;2023-02-18T13:09:59;98460.63;;;12.98;94.49
18323;BME280;9287;49.456;11.064;2023-02-18T13:12:37;98463.53;;;12.89;94.13
18323;BME280;9287;49.456;11.064;2023-02-18T13:15:16;98454.06;;;12.87;95.50
18323;BME280;9287;49.456;11.064;2023-02-18T13:17:47;98451.34;;;12.87;96.21
18323;BME280;9287;49.456;11.064;2023-02-18T13:20:20;98442.41;;;12.90;96.13
18323;BME280;9287;49.456;11.064;2023-02-18T13:22:51;98445.41;;;12.85;96.29
18323;BME280;9287;49.456;11.064;2023-02-18T13:25:20;98438.97;;;12.77;96.25